Time,TemperatureF,DewpointF,PressureIn,WindDirection,WindDirectionDegrees,WindSpeedMPH,WindSpeedGustMPH,Humidity,HourlyPrecipIn,Conditions,Clouds,dailyrainin,SolarRadiationWatts/m^2,SoftwareType,DateUTC
2013-09-27 00:00:00,49.9,45.0,30.12,NW,315,0.0,1.0,83,0.00,,,0.00,0000,Weather View 32 v70,2013-09-27 04:00:00,
2013-09-27 00:05:00,50.1,45.2,30.12,NW,315,0.0,1.0,83,0.00,,,0.00,0000,Weather View 32 v70,2013-09-27 04:05:00,
2013-09-27 00:10:00,50.3,45.3,30.12,NW,315,0.0,1.0,83,0.00,,,0.00,0000,Weather View 32 v70,2013-09-27 04:10:00,
2013-09-27 00:20:00,50.1,44.5,30.12,NW,315,0.0,1.0,81,0.00,,,0.00,0000,Weather View 32 v70,2013-09-27 04:20:00,
2013-09-27 00:21:00,50.1,44.5,30.12,NW,315,0.0,1.0,81,0.00,,,0.00,0000,Weather View 32 v70,2013-09-27 04:21:00,
2013-09-27 00:30:00,50.3,44.6,30.12,NW,315,0.0,1.0,81,0.00,,,0.00,0000,Weather View 32 v70,2013-09-27 04:30:00,
2013-09-27 00:40:00,50.5,45.2,30.11,NW,315,0.0,1.0,82,0.00,,,0.00,0016,Weather View 32 v70,2013-09-27 04:40:00,
2013-09-27 00:45:00,50.5,45.5,30.11,NW,315,0.0,1.0,83,0.00,,,0.00,0000,Weather View 32 v70,2013-09-27 04:45:00,
2013-09-27 00:50:00,50.6,45.6,30.12,NW,315,0.0,1.0,83,0.00,,,0.00,0016,Weather View 32 v70,2013-09-27 04:50:00,
2013-09-27 00:55:00,50.5,45.5,30.12,NW,315,0.0,0.0,83,0.00,,,0.00,0000,Weather View 32 v70,2013-09-27 04:55:00,
2013-09-27 01:00:00,50.5,45.5,30.12,NW,315,0.0,0.0,83,0.00,,,0.00,0000,Weather View 32 v70,2013-09-27 05:00:00,
2013-09-27 01:10:00,50.5,45.5,30.12,NW,315,0.0,0.0,83,0.00,,,0.00,0000,Weather View 32 v70,2013-09-27 05:10:00,
2013-09-27 01:15:00,50.6,45.6,30.12,NW,315,0.0,0.0,83,0.00,,,0.00,0000,Weather View 32 v70,2013-09-27 05:15:00,
2013-09-27 01:20:00,50.6,45.6,30.12,NW,315,0.0,0.0,83,0.00,,,0.00,0000,Weather View 32 v70,2013-09-27 05:20:00,
2013-09-27 01:25:00,50.7,45.7,30.12,NW,315,0.0,0.0,83,0.00,,,0.00,0000,Weather View 32 v70,2013-09-27 05:25:00,
2013-09-27 01:30:00,50.8,45.8,30.12,NW,315,0.0,0.0,83,0.00,,,0.00,0000,Weather View 32 v70,2013-09-27 05:30:00,
2013-09-27 01:40:00,50.7,45.7,30.12,NW,315,0.0,0.0,83,0.00,,,0.00,0000,Weather View 32 v70,2013-09-27 05:40:00,
2013-09-27 01:50:00,50.7,45.4,30.12,NNW,338,0.0,1.0,82,0.00,,,0.00,0000,Weather View 32 v70,2013-09-27 05:50:00,
2013-09-27 01:55:00,50.8,45.5,30.12,NNW,338,0.0,1.0,82,0.00,,,0.00,0000,Weather View 32 v70,2013-09-27 05:55:00,
2013-09-27 02:00:00,50.9,45.9,30.12,NNW,338,0.0,1.0,83,0.00,,,0.00,0000,Weather View 32 v70,2013-09-27 06:00:00,
2013-09-27 02:05:00,50.9,45.9,30.12,NNW,338,0.0,1.0,83,0.00,,,0.00,0000,Weather View 32 v70,2013-09-27 06:05:00,
2013-09-27 02:15:00,51.0,46.0,30.12,NNW,338,0.0,1.0,83,0.00,,,0.00,0000,Weather View 32 v70,2013-09-27 06:15:00,
2013-09-27 02:20:00,51.2,46.2,30.12,NNW,338,0.0,1.0,83,0.00,,,0.00,0000,Weather View 32 v70,2013-09-27 06:20:00,
2013-09-27 02:25:00,51.2,46.2,30.12,NNW,338,0.0,1.0,83,0.00,,,0.00,0000,Weather View 32 v70,2013-09-27 06:25:00,
2013-09-27 02:35:00,51.3,46.0,30.12,NNW,338,0.0,1.0,82,0.00,,,0.00,0000,Weather View 32 v70,2013-09-27 06:35:00,
2013-09-27 02:40:00,51.3,46.0,30.12,NNW,338,0.0,1.0,82,0.00,,,0.00,0008,Weather View 32 v70,2013-09-27 06:40:00,
2013-09-27 02:50:00,51.4,46.0,30.12,NNW,338,0.0,1.0,82,0.00,,,0.00,0000,Weather View 32 v70,2013-09-27 06:50:00,
2013-09-27 03:00:00,51.4,46.0,30.12,NNW,338,0.0,0.0,82,0.00,,,0.00,0000,Weather View 32 v70,2013-09-27 07:00:00,
2013-09-27 03:05:00,51.5,46.2,30.12,NNW,338,0.0,0.0,82,0.00,,,0.00,0016,Weather View 32 v70,2013-09-27 07:05:00,
2013-09-27 03:10:00,51.5,46.2,30.12,NNW,338,0.0,0.0,82,0.00,,,0.00,0000,Weather View 32 v70,2013-09-27 07:10:00,
2013-09-27 03:20:00,51.6,46.3,30.12,NNW,338,0.0,0.0,82,0.00,,,0.00,0000,Weather View 32 v70,2013-09-27 07:20:00,
2013-09-27 03:25:00,51.6,46.3,30.12,NNW,338,0.0,0.0,82,0.00,,,0.00,0000,Weather View 32 v70,2013-09-27 07:25:00,
2013-09-27 03:30:00,51.6,46.3,30.12,NNW,338,0.0,0.0,82,0.00,,,0.00,0008,Weather View 32 v70,2013-09-27 07:30:00,
2013-09-27 03:40:00,51.7,46.7,30.12,NNW,338,0.0,0.0,83,0.00,,,0.00,0000,Weather View 32 v70,2013-09-27 07:40:00,
2013-09-27 03:45:00,51.8,46.8,30.13,NNW,338,0.0,0.0,83,0.00,,,0.00,0000,Weather View 32 v70,2013-09-27 07:45:00,
2013-09-27 03:55:00,51.8,46.8,30.13,NNW,338,0.0,0.0,83,0.00,,,0.00,0008,Weather View 32 v70,2013-09-27 07:55:00,
2013-09-27 04:00:00,51.8,46.8,30.13,NNW,338,0.0,0.0,83,0.00,,,0.00,0000,Weather View 32 v70,2013-09-27 08:00:00,
2013-09-27 04:05:00,51.8,46.8,30.13,NNW,338,0.0,0.0,83,0.00,,,0.00,0000,Weather View 32 v70,2013-09-27 08:05:00,
2013-09-27 04:15:00,51.8,46.8,30.13,NNW,338,0.0,0.0,83,0.00,,,0.00,0008,Weather View 32 v70,2013-09-27 08:15:00,
2013-09-27 04:20:00,51.8,46.8,30.13,NNW,338,0.0,0.0,83,0.00,,,0.00,0000,Weather View 32 v70,2013-09-27 08:20:00,
2013-09-27 04:25:00,51.9,46.9,30.13,NNW,338,0.0,0.0,83,0.00,,,0.00,0000,Weather View 32 v70,2013-09-27 08:25:00,
2013-09-27 04:30:00,52.1,47.0,30.13,NW,315,0.0,0.0,83,0.00,,,0.00,0008,Weather View 32 v70,2013-09-27 08:30:00,
2013-09-27 04:40:00,52.2,47.2,30.13,NW,315,0.0,0.0,83,0.00,,,0.00,0000,Weather View 32 v70,2013-09-27 08:40:00,
2013-09-27 04:50:00,52.3,47.3,30.14,NNW,338,0.0,0.0,83,0.00,,,0.00,0008,Weather View 32 v70,2013-09-27 08:50:00,
2013-09-27 05:00:00,52.3,47.3,30.14,NNW,338,0.0,0.0,83,0.00,,,0.00,0000,Weather View 32 v70,2013-09-27 09:00:00,
2013-09-27 05:10:00,52.4,47.4,30.14,NW,315,0.0,0.0,83,0.00,,,0.00,0000,Weather View 32 v70,2013-09-27 09:10:00,
2013-09-27 05:15:00,52.5,47.5,30.14,NNW,338,0.0,0.0,83,0.00,,,0.00,0008,Weather View 32 v70,2013-09-27 09:15:00,
2013-09-27 05:20:00,52.6,47.6,30.14,NW,315,0.0,0.0,83,0.00,,,0.00,0008,Weather View 32 v70,2013-09-27 09:20:00,
2013-09-27 05:30:00,52.7,47.7,30.15,NNW,338,0.0,0.0,83,0.00,,,0.00,0000,Weather View 32 v70,2013-09-27 09:30:00,
2013-09-27 05:40:00,53.0,47.9,30.15,NW,315,0.0,0.0,83,0.00,,,0.00,0000,Weather View 32 v70,2013-09-27 09:40:00,
2013-09-27 05:50:00,53.1,48.0,30.15,NNW,338,0.0,1.0,83,0.00,,,0.00,0000,Weather View 32 v70,2013-09-27 09:50:00,
2013-09-27 05:55:00,53.1,48.0,30.15,NNW,338,0.0,1.0,83,0.00,,,0.00,0000,Weather View 32 v70,2013-09-27 09:55:00,
2013-09-27 06:00:00,53.1,48.0,30.16,NW,315,0.0,1.0,83,0.00,,,0.00,0008,Weather View 32 v70,2013-09-27 10:00:00,
2013-09-27 06:05:00,53.1,48.0,30.16,NW,315,0.0,1.0,83,0.00,,,0.00,0000,Weather View 32 v70,2013-09-27 10:05:00,
2013-09-27 06:15:00,53.1,48.0,30.16,North,0,0.0,1.0,83,0.00,,,0.00,0000,Weather View 32 v70,2013-09-27 10:15:00,
2013-09-27 06:20:00,53.2,47.8,30.16,North,0,0.0,1.0,82,0.00,,,0.00,0000,Weather View 32 v70,2013-09-27 10:20:00,
2013-09-27 06:25:00,53.2,48.1,30.16,North,0,0.0,1.0,83,0.00,,,0.00,0000,Weather View 32 v70,2013-09-27 10:25:00,
2013-09-27 06:30:00,53.2,48.1,30.16,North,0,0.0,1.0,83,0.00,,,0.00,0000,Weather View 32 v70,2013-09-27 10:30:00,
2013-09-27 06:40:00,53.3,47.9,30.17,North,0,0.0,1.0,82,0.00,,,0.00,0000,Weather View 32 v70,2013-09-27 10:40:00,
2013-09-27 06:50:00,53.3,47.9,30.17,NNW,338,0.0,0.0,82,0.00,,,0.00,0000,Weather View 32 v70,2013-09-27 10:50:00,
2013-09-27 06:55:00,53.4,48.0,30.17,NNW,338,0.0,0.0,82,0.00,,,0.00,0008,Weather View 32 v70,2013-09-27 10:55:00,
2013-09-27 07:05:00,53.4,48.0,30.17,NNW,338,0.0,0.0,82,0.00,,,0.00,0008,Weather View 32 v70,2013-09-27 11:05:00,
2013-09-27 07:10:00,53.5,48.1,30.18,North,0,0.0,0.0,82,0.00,,,0.00,0008,Weather View 32 v70,2013-09-27 11:10:00,
2013-09-27 07:15:00,53.5,47.8,30.18,NNW,338,0.0,0.0,81,0.00,,,0.00,0016,Weather View 32 v70,2013-09-27 11:15:00,
2013-09-27 07:20:00,53.6,47.9,30.18,NNW,338,0.0,0.0,81,0.00,,,0.00,0016,Weather View 32 v70,2013-09-27 11:20:00,
2013-09-27 07:25:00,53.6,47.9,30.18,NNW,338,0.0,0.0,81,0.00,,,0.00,0000,Weather View 32 v70,2013-09-27 11:25:00,
2013-09-27 07:35:00,53.7,48.0,30.18,NNW,338,0.0,0.0,81,0.00,,,0.00,0016,Weather View 32 v70,2013-09-27 11:35:00,
2013-09-27 07:40:00,53.7,48.0,30.18,NW,315,0.0,0.0,81,0.00,,,0.00,0008,Weather View 32 v70,2013-09-27 11:40:00,
2013-09-27 07:45:00,54.0,47.9,30.18,NNW,338,0.0,0.0,80,0.00,,,0.00,0008,Weather View 32 v70,2013-09-27 11:45:00,
2013-09-27 07:55:00,54.2,48.1,30.19,NNW,338,0.0,0.0,80,0.00,,,0.00,0016,Weather View 32 v70,2013-09-27 11:55:00,
2013-09-27 08:00:00,54.2,48.1,30.19,NNW,338,0.0,2.0,80,0.00,,,0.00,0032,Weather View 32 v70,2013-09-27 12:00:00,
2013-09-27 08:05:00,54.3,48.2,30.19,NNW,338,0.0,2.0,80,0.00,,,0.00,0016,Weather View 32 v70,2013-09-27 12:05:00,
2013-09-27 08:15:00,54.5,48.1,30.19,NW,315,0.0,2.0,79,0.00,,,0.00,0048,Weather View 32 v70,2013-09-27 12:15:00,
2013-09-27 08:20:00,54.5,48.1,30.19,NNW,338,0.0,2.0,79,0.00,,,0.00,0032,Weather View 32 v70,2013-09-27 12:20:00,
2013-09-27 08:26:00,54.8,48.3,30.19,NNW,338,0.0,2.0,79,0.00,,,0.00,0048,Weather View 32 v70,2013-09-27 12:26:00,
2013-09-27 08:35:00,54.9,48.1,30.20,North,0,0.0,2.0,78,0.00,,,0.00,0040,Weather View 32 v70,2013-09-27 12:35:00,
2013-09-27 08:40:00,55.0,48.6,30.20,North,0,0.0,2.0,79,0.00,,,0.00,0064,Weather View 32 v70,2013-09-27 12:40:00,
2013-09-27 08:50:00,55.2,48.8,30.20,North,0,0.0,2.0,79,0.00,,,0.00,0048,Weather View 32 v70,2013-09-27 12:50:00,
2013-09-27 09:00:00,55.4,49.0,30.20,NNW,338,0.0,1.0,79,0.00,,,0.00,0072,Weather View 32 v70,2013-09-27 13:00:00,
2013-09-27 09:10:00,55.5,49.1,30.21,NE,45,0.0,1.0,79,0.00,,,0.00,0064,Weather View 32 v70,2013-09-27 13:10:00,
2013-09-27 09:15:00,55.8,49.3,30.21,NNE,23,0.0,1.0,79,0.00,,,0.00,0072,Weather View 32 v70,2013-09-27 13:15:00,
2013-09-27 09:20:00,55.8,49.0,30.21,NNW,338,0.0,1.0,78,0.00,,,0.00,0096,Weather View 32 v70,2013-09-27 13:20:00,
2013-09-27 09:25:00,56.1,49.3,30.21,NNW,338,0.0,1.0,78,0.00,,,0.00,0120,Weather View 32 v70,2013-09-27 13:25:00,
2013-09-27 09:35:00,56.6,49.4,30.21,North,0,0.0,0.0,77,0.00,,,0.00,0144,Weather View 32 v70,2013-09-27 13:35:00,
2013-09-27 09:40:00,56.7,49.5,30.21,NNW,338,0.0,0.0,77,0.00,,,0.00,0136,Weather View 32 v70,2013-09-27 13:40:00,
2013-09-27 09:50:00,57.0,49.5,30.21,North,0,0.0,1.0,76,0.00,,,0.00,0136,Weather View 32 v70,2013-09-27 13:50:00,
2013-09-27 09:55:00,57.1,49.3,30.21,ENE,68,0.0,1.0,75,0.00,,,0.00,0136,Weather View 32 v70,2013-09-27 13:55:00,
2013-09-27 10:00:00,57.2,49.3,30.21,North,0,0.0,1.0,75,0.00,,,0.00,0128,Weather View 32 v70,2013-09-27 14:00:00,
2013-09-27 10:05:00,57.2,49.0,30.21,North,0,0.0,1.0,74,0.00,,,0.00,0144,Weather View 32 v70,2013-09-27 14:05:00,
2013-09-27 10:10:00,57.2,48.6,30.22,North,0,0.0,1.0,73,0.00,,,0.00,0128,Weather View 32 v70,2013-09-27 14:10:00,
2013-09-27 10:20:00,57.6,49.7,30.22,North,0,0.0,1.0,75,0.00,,,0.00,0144,Weather View 32 v70,2013-09-27 14:20:00,
2013-09-27 10:25:00,57.8,49.9,30.22,North,0,0.0,1.0,75,0.00,,,0.00,0168,Weather View 32 v70,2013-09-27 14:25:00,
2013-09-27 10:30:00,57.9,49.6,30.21,WNW,293,0.0,1.0,74,0.00,,,0.00,0152,Weather View 32 v70,2013-09-27 14:30:00,
2013-09-27 10:35:00,58.0,49.8,30.21,North,0,0.0,1.0,74,0.00,,,0.00,0184,Weather View 32 v70,2013-09-27 14:35:00,
2013-09-27 10:40:00,58.2,49.6,30.21,NNW,338,0.0,1.0,73,0.00,,,0.00,0208,Weather View 32 v70,2013-09-27 14:40:00,
2013-09-27 10:50:00,58.8,50.1,30.21,NNW,338,0.0,1.0,73,0.00,,,0.00,0248,Weather View 32 v70,2013-09-27 14:50:00,
2013-09-27 10:55:00,59.1,50.1,30.21,NNE,23,0.0,1.0,72,0.00,,,0.00,0312,Weather View 32 v70,2013-09-27 14:55:00,
2013-09-27 11:00:00,59.5,50.0,30.21,NW,315,0.0,4.0,71,0.00,,,0.00,0296,Weather View 32 v70,2013-09-27 15:00:00,
2013-09-27 11:05:00,59.7,50.3,30.21,NE,45,0.0,4.0,71,0.00,,,0.00,0352,Weather View 32 v70,2013-09-27 15:05:00,
2013-09-27 11:15:00,60.4,50.1,30.21,North,0,0.0,4.0,69,0.00,,,0.00,0432,Weather View 32 v70,2013-09-27 15:15:00,
2013-09-27 11:25:00,61.1,50.4,30.21,WNW,293,0.0,4.0,68,0.00,,,0.00,0480,Weather View 32 v70,2013-09-27 15:25:00,
2013-09-27 11:30:00,61.3,49.8,30.21,North,0,0.0,4.0,66,0.00,,,0.00,0528,Weather View 32 v70,2013-09-27 15:30:00,
2013-09-27 11:35:00,61.6,50.1,30.21,North,0,0.0,4.0,66,0.00,,,0.00,0448,Weather View 32 v70,2013-09-27 15:35:00,
2013-09-27 11:40:00,62.0,50.8,30.21,ENE,68,0.0,4.0,67,0.00,,,0.00,0376,Weather View 32 v70,2013-09-27 15:40:00,
2013-09-27 11:50:00,62.2,51.0,30.21,ENE,68,0.0,4.0,67,0.00,,,0.00,0456,Weather View 32 v70,2013-09-27 15:50:00,
2013-09-27 12:00:00,62.6,49.4,30.21,ENE,68,0.0,7.0,62,0.00,,,0.00,0552,Weather View 32 v70,2013-09-27 16:00:00,
2013-09-27 12:10:00,62.7,49.5,30.21,East,90,3.0,7.0,62,0.00,,,0.00,0360,Weather View 32 v70,2013-09-27 16:10:00,
2013-09-27 12:20:00,63.1,50.2,30.21,NNE,23,0.0,9.0,63,0.00,,,0.00,0304,Weather View 32 v70,2013-09-27 16:20:00,
2013-09-27 12:25:00,63.0,50.1,30.21,West,270,0.0,9.0,63,0.00,,,0.00,0312,Weather View 32 v70,2013-09-27 16:25:00,
2013-09-27 12:30:00,63.2,49.9,30.21,NNW,338,0.0,9.0,62,0.00,,,0.00,0344,Weather View 32 v70,2013-09-27 16:30:00,
2013-09-27 12:35:00,63.2,50.4,30.21,North,0,0.0,9.0,63,0.00,,,0.00,0280,Weather View 32 v70,2013-09-27 16:35:00,
2013-09-27 12:45:00,62.9,50.5,30.21,NNE,23,0.0,9.0,64,0.00,,,0.00,0280,Weather View 32 v70,2013-09-27 16:45:00,
2013-09-27 12:50:00,63.1,51.5,30.21,North,0,0.0,9.0,66,0.00,,,0.00,0184,Weather View 32 v70,2013-09-27 16:50:00,
2013-09-27 13:00:00,62.9,50.0,30.21,North,0,0.0,9.0,63,0.00,,,0.00,0272,Weather View 32 v70,2013-09-27 17:00:00,
2013-09-27 13:05:00,63.1,50.7,30.20,North,0,0.0,9.0,64,0.00,,,0.00,0288,Weather View 32 v70,2013-09-27 17:05:00,
2013-09-27 13:15:00,62.9,50.0,30.20,NNW,338,2.0,5.0,63,0.00,,,0.00,0144,Weather View 32 v70,2013-09-27 17:15:00,
2013-09-27 13:20:00,62.5,49.7,30.20,NW,315,0.0,5.0,63,0.00,,,0.00,0168,Weather View 32 v70,2013-09-27 17:20:00,
2013-09-27 13:25:00,62.5,49.7,30.20,North,0,0.0,5.0,63,0.00,,,0.00,0280,Weather View 32 v70,2013-09-27 17:25:00,
2013-09-27 13:35:00,62.9,49.6,30.20,NNE,23,0.0,5.0,62,0.00,,,0.00,0160,Weather View 32 v70,2013-09-27 17:35:00,
2013-09-27 13:40:00,62.9,50.9,30.20,North,0,0.0,5.0,65,0.00,,,0.00,0088,Weather View 32 v70,2013-09-27 17:40:00,
2013-09-27 13:45:00,62.6,50.7,30.20,NNW,338,0.0,5.0,65,0.00,,,0.00,0136,Weather View 32 v70,2013-09-27 17:45:00,
2013-09-27 13:50:00,62.6,51.1,30.19,NNE,23,0.0,5.0,66,0.00,,,0.00,0200,Weather View 32 v70,2013-09-27 17:50:00,
2013-09-27 13:55:00,62.6,51.5,30.20,NNW,338,0.0,5.0,67,0.00,,,0.00,0328,Weather View 32 v70,2013-09-27 17:55:00,
2013-09-27 14:05:00,63.8,50.9,30.19,NNE,23,1.0,5.0,63,0.00,,,0.00,0368,Weather View 32 v70,2013-09-27 18:05:00,
2013-09-27 14:10:00,64.0,50.7,30.19,NNW,338,0.0,5.0,62,0.00,,,0.00,0296,Weather View 32 v70,2013-09-27 18:10:00,
2013-09-27 14:20:00,64.1,50.3,30.19,NNW,338,0.0,5.0,61,0.00,,,0.00,0256,Weather View 32 v70,2013-09-27 18:20:00,
2013-09-27 14:25:00,63.6,50.8,30.19,NNW,338,0.0,5.0,63,0.00,,,0.00,0192,Weather View 32 v70,2013-09-27 18:25:00,
2013-09-27 14:35:00,63.8,51.3,30.19,NW,315,0.0,5.0,64,0.00,,,0.00,0240,Weather View 32 v70,2013-09-27 18:35:00,
2013-09-27 14:40:00,63.5,50.7,30.19,North,0,0.0,5.0,63,0.00,,,0.00,0168,Weather View 32 v70,2013-09-27 18:40:00,
2013-09-27 14:45:00,63.4,50.6,30.19,NNW,338,0.0,5.0,63,0.00,,,0.00,0200,Weather View 32 v70,2013-09-27 18:45:00,
2013-09-27 14:55:00,63.4,51.0,30.18,North,0,0.0,5.0,64,0.00,,,0.00,0200,Weather View 32 v70,2013-09-27 18:55:00,
2013-09-27 15:00:00,63.4,50.1,30.18,NNW,338,0.0,5.0,62,0.00,,,0.00,0224,Weather View 32 v70,2013-09-27 19:00:00,
2013-09-27 15:05:00,63.3,50.0,30.18,North,0,0.0,5.0,62,0.00,,,0.00,0288,Weather View 32 v70,2013-09-27 19:05:00,
2013-09-27 15:10:00,63.3,50.5,30.18,NNW,338,0.0,5.0,63,0.00,,,0.00,0216,Weather View 32 v70,2013-09-27 19:10:00,
2013-09-27 15:20:00,63.0,51.0,30.19,NNW,338,0.0,3.0,65,0.00,,,0.00,0088,Weather View 32 v70,2013-09-27 19:20:00,
2013-09-27 15:25:00,63.0,50.6,30.18,North,0,0.0,3.0,64,0.00,,,0.00,0200,Weather View 32 v70,2013-09-27 19:25:00,
2013-09-27 15:30:00,63.0,51.0,30.18,North,0,0.0,3.0,65,0.00,,,0.00,0208,Weather View 32 v70,2013-09-27 19:30:00,
2013-09-27 15:40:00,63.2,50.4,30.18,North,0,0.0,3.0,63,0.00,,,0.00,0256,Weather View 32 v70,2013-09-27 19:40:00,
2013-09-27 15:50:00,63.5,51.5,30.18,North,0,0.0,3.0,65,0.00,,,0.00,0144,Weather View 32 v70,2013-09-27 19:50:00,
2013-09-27 15:55:00,63.3,50.5,30.18,WNW,293,0.0,3.0,63,0.00,,,0.00,0160,Weather View 32 v70,2013-09-27 19:55:00,
2013-09-27 16:00:00,63.2,50.8,30.19,North,0,0.0,3.0,64,0.00,,,0.00,0176,Weather View 32 v70,2013-09-27 20:00:00,
2013-09-27 16:05:00,63.2,51.2,30.19,NW,315,0.0,3.0,65,0.00,,,0.00,0168,Weather View 32 v70,2013-09-27 20:05:00,
2013-09-27 16:10:00,63.1,51.1,30.19,WNW,293,0.0,3.0,65,0.00,,,0.00,0152,Weather View 32 v70,2013-09-27 20:10:00,
2013-09-27 16:20:00,63.0,50.6,30.19,North,0,0.0,3.0,64,0.00,,,0.00,0128,Weather View 32 v70,2013-09-27 20:20:00,
2013-09-27 16:30:00,63.1,51.9,30.19,North,0,0.0,3.0,67,0.00,,,0.00,0136,Weather View 32 v70,2013-09-27 20:30:00,
2013-09-27 16:35:00,63.1,51.9,30.19,North,0,0.0,3.0,67,0.00,,,0.00,0144,Weather View 32 v70,2013-09-27 20:35:00,
2013-09-27 16:40:00,62.9,51.7,30.19,North,0,0.0,3.0,67,0.00,,,0.00,0160,Weather View 32 v70,2013-09-27 20:40:00,
2013-09-27 16:45:00,62.7,51.2,30.19,NW,315,0.0,5.0,66,0.00,,,0.00,0136,Weather View 32 v70,2013-09-27 20:45:00,
2013-09-27 16:50:00,62.6,51.1,30.20,North,0,0.0,5.0,66,0.00,,,0.00,0176,Weather View 32 v70,2013-09-27 20:50:00,
2013-09-27 16:55:00,62.5,51.4,30.19,NW,315,0.0,5.0,67,0.00,,,0.00,0088,Weather View 32 v70,2013-09-27 20:55:00,
2013-09-27 17:05:00,62.1,51.0,30.20,NNE,23,0.0,5.0,67,0.00,,,0.00,0232,Weather View 32 v70,2013-09-27 21:05:00,
2013-09-27 17:15:00,62.0,51.2,30.20,North,0,0.0,5.0,68,0.00,,,0.00,0056,Weather View 32 v70,2013-09-27 21:15:00,
2013-09-27 17:20:00,61.8,51.1,30.20,NW,315,0.0,5.0,68,0.00,,,0.00,0072,Weather View 32 v70,2013-09-27 21:20:00,
2013-09-27 17:25:00,61.7,51.0,30.20,NNE,23,0.0,5.0,68,0.00,,,0.00,0048,Weather View 32 v70,2013-09-27 21:25:00,
2013-09-27 17:30:00,61.6,50.9,30.20,NNW,338,0.0,5.0,68,0.00,,,0.00,0016,Weather View 32 v70,2013-09-27 21:30:00,
2013-09-27 17:40:00,60.7,50.5,30.20,NNW,338,0.0,5.0,69,0.00,,,0.00,0008,Weather View 32 v70,2013-09-27 21:40:00,
2013-09-27 17:50:00,60.2,50.7,30.20,NNW,338,0.0,2.0,71,0.00,,,0.00,0032,Weather View 32 v70,2013-09-27 21:50:00,
2013-09-27 18:00:00,59.5,50.4,30.20,NNW,338,0.0,2.0,72,0.00,,,0.00,0000,Weather View 32 v70,2013-09-27 22:00:00,
2013-09-27 18:05:00,59.4,50.7,30.20,NNW,338,0.0,2.0,73,0.00,,,0.00,0008,Weather View 32 v70,2013-09-27 22:05:00,
2013-09-27 18:15:00,58.7,50.4,30.20,NNW,338,0.0,2.0,74,0.00,,,0.00,0008,Weather View 32 v70,2013-09-27 22:15:00,
2013-09-27 18:20:00,58.5,50.6,30.20,NNW,338,0.0,2.0,75,0.00,,,0.00,0000,Weather View 32 v70,2013-09-27 22:20:00,
2013-09-27 18:25:00,58.1,50.2,30.20,NNW,338,0.0,2.0,75,0.00,,,0.00,0000,Weather View 32 v70,2013-09-27 22:25:00,
2013-09-27 18:32:00,58.0,50.1,30.20,NNW,338,0.0,0.0,75,0.00,,,0.00,0000,Weather View 32 v70,2013-09-27 22:32:00,
2013-09-27 18:40:00,57.6,49.7,30.21,NNW,338,0.0,0.0,75,0.00,,,0.00,0000,Weather View 32 v70,2013-09-27 22:40:00,
2013-09-27 18:45:00,57.3,49.8,30.21,NNW,338,0.0,0.0,76,0.00,,,0.00,0000,Weather View 32 v70,2013-09-27 22:45:00,
2013-09-27 18:55:00,56.7,49.2,30.21,NNW,338,0.0,0.0,76,0.00,,,0.00,0000,Weather View 32 v70,2013-09-27 22:55:00,
2013-09-27 19:00:00,56.3,49.2,30.21,NNW,338,0.0,0.0,77,0.00,,,0.00,0008,Weather View 32 v70,2013-09-27 23:00:00,
2013-09-27 19:05:00,56.0,48.9,30.21,NNW,338,0.0,0.0,77,0.00,,,0.00,0000,Weather View 32 v70,2013-09-27 23:05:00,
2013-09-27 19:10:00,55.8,49.0,30.21,NNW,338,0.0,0.0,78,0.00,,,0.00,0000,Weather View 32 v70,2013-09-27 23:10:00,
2013-09-27 19:15:00,55.7,48.9,30.21,NNW,338,0.0,0.0,78,0.00,,,0.00,0000,Weather View 32 v70,2013-09-27 23:15:00,
2013-09-27 19:20:00,55.5,48.8,30.22,NNW,338,0.0,0.0,78,0.00,,,0.00,0000,Weather View 32 v70,2013-09-27 23:20:00,
2013-09-27 19:25:00,55.4,48.7,30.22,NNW,338,0.0,0.0,78,0.00,,,0.00,0008,Weather View 32 v70,2013-09-27 23:25:00,
2013-09-27 19:30:00,55.2,48.4,30.22,NNW,338,0.0,0.0,78,0.00,,,0.00,0008,Weather View 32 v70,2013-09-27 23:30:00,
2013-09-27 19:35:00,55.0,48.2,30.22,NNW,338,0.0,0.0,78,0.00,,,0.00,0008,Weather View 32 v70,2013-09-27 23:35:00,
2013-09-27 19:45:00,54.5,48.1,30.22,NNW,338,0.0,0.0,79,0.00,,,0.00,0000,Weather View 32 v70,2013-09-27 23:45:00,
2013-09-27 19:50:00,54.2,47.8,30.22,NNW,338,0.0,0.0,79,0.00,,,0.00,0000,Weather View 32 v70,2013-09-27 23:50:00,
2013-09-27 20:00:00,53.9,47.8,30.22,NNW,338,0.0,0.0,80,0.00,,,0.00,0008,Weather View 32 v70,2013-09-28 00:00:00,
2013-09-27 20:05:00,53.7,47.7,30.23,NNW,338,0.0,0.0,80,0.00,,,0.00,0000,Weather View 32 v70,2013-09-28 00:05:00,
2013-09-27 20:15:00,53.5,47.5,30.24,NNW,338,0.0,0.0,80,0.00,,,0.00,0000,Weather View 32 v70,2013-09-28 00:15:00,
2013-09-27 20:20:00,53.3,47.3,30.24,NNW,338,0.0,0.0,80,0.00,,,0.00,0000,Weather View 32 v70,2013-09-28 00:20:00,
2013-09-27 20:30:00,53.0,47.3,30.24,NNW,338,0.0,0.0,81,0.00,,,0.00,0000,Weather View 32 v70,2013-09-28 00:30:00,
2013-09-27 20:40:00,52.8,47.2,30.24,NNW,338,0.0,0.0,81,0.00,,,0.00,0008,Weather View 32 v70,2013-09-28 00:40:00,
2013-09-27 20:45:00,52.7,47.0,30.24,NNW,338,0.0,0.0,81,0.00,,,0.00,0000,Weather View 32 v70,2013-09-28 00:45:00,
2013-09-27 20:55:00,52.5,46.8,30.24,NNW,338,0.0,0.0,81,0.00,,,0.00,0000,Weather View 32 v70,2013-09-28 00:55:00,
2013-09-27 21:00:00,52.4,46.7,30.24,NNW,338,0.0,0.0,81,0.00,,,0.00,0000,Weather View 32 v70,2013-09-28 01:00:00,
2013-09-27 21:05:00,52.3,46.6,30.24,NNW,338,0.0,0.0,81,0.00,,,0.00,0000,Weather View 32 v70,2013-09-28 01:05:00,
2013-09-27 21:15:00,52.1,46.4,30.24,NNW,338,0.0,0.0,81,0.00,,,0.00,0000,Weather View 32 v70,2013-09-28 01:15:00,
2013-09-27 21:25:00,51.8,46.2,30.24,NNW,338,0.0,0.0,81,0.00,,,0.00,0000,Weather View 32 v70,2013-09-28 01:25:00,
2013-09-27 21:30:00,51.7,46.1,30.25,NNW,338,0.0,0.0,81,0.00,,,0.00,0000,Weather View 32 v70,2013-09-28 01:30:00,
2013-09-27 21:40:00,51.5,45.8,30.25,NNW,338,0.0,0.0,81,0.00,,,0.00,0000,Weather View 32 v70,2013-09-28 01:40:00,
2013-09-27 21:45:00,51.4,45.7,30.25,NNW,338,0.0,0.0,81,0.00,,,0.00,0000,Weather View 32 v70,2013-09-28 01:45:00,
2013-09-27 21:55:00,51.2,45.5,30.25,NNW,338,0.0,0.0,81,0.00,,,0.00,0000,Weather View 32 v70,2013-09-28 01:55:00,
2013-09-27 22:00:00,51.0,45.4,30.26,NNW,338,0.0,0.0,81,0.00,,,0.00,0000,Weather View 32 v70,2013-09-28 02:00:00,
2013-09-27 22:10:00,50.8,45.2,30.26,NNW,338,0.0,0.0,81,0.00,,,0.00,0000,Weather View 32 v70,2013-09-28 02:10:00,
2013-09-27 22:15:00,50.7,45.1,30.26,NNW,338,0.0,0.0,81,0.00,,,0.00,0000,Weather View 32 v70,2013-09-28 02:15:00,
2013-09-27 22:20:00,50.7,45.1,30.26,NNW,338,0.0,0.0,81,0.00,,,0.00,0000,Weather View 32 v70,2013-09-28 02:20:00,
2013-09-27 22:25:00,50.6,45.0,30.26,NNW,338,0.0,0.0,81,0.00,,,0.00,0000,Weather View 32 v70,2013-09-28 02:25:00,
2013-09-27 22:30:00,50.6,45.3,30.26,NNW,338,0.0,0.0,82,0.00,,,0.00,0000,Weather View 32 v70,2013-09-28 02:30:00,
2013-09-27 22:40:00,50.6,45.6,30.26,NNW,338,0.0,0.0,83,0.00,,,0.00,0000,Weather View 32 v70,2013-09-28 02:40:00,
2013-09-27 22:50:00,50.5,45.2,30.26,NNW,338,0.0,0.0,82,0.00,,,0.00,0000,Weather View 32 v70,2013-09-28 02:50:00,
2013-09-27 23:00:00,50.4,45.4,30.26,NNW,338,0.0,0.0,83,0.00,,,0.00,0000,Weather View 32 v70,2013-09-28 03:00:00,
2013-09-27 23:10:00,50.1,45.2,30.26,NNW,338,0.0,0.0,83,0.00,,,0.00,0000,Weather View 32 v70,2013-09-28 03:10:00,
2013-09-27 23:15:00,50.0,45.1,30.26,NNW,338,0.0,0.0,83,0.00,,,0.00,0000,Weather View 32 v70,2013-09-28 03:15:00,
2013-09-27 23:25:00,49.9,45.3,30.26,NNW,338,0.0,0.0,84,0.00,,,0.00,0008,Weather View 32 v70,2013-09-28 03:25:00,
2013-09-27 23:30:00,49.9,45.3,30.26,NNW,338,0.0,0.0,84,0.00,,,0.00,0000,Weather View 32 v70,2013-09-28 03:30:00,
2013-09-27 23:40:00,49.7,45.0,30.26,NNW,338,0.0,0.0,84,0.00,,,0.00,0000,Weather View 32 v70,2013-09-28 03:40:00,
2013-09-27 23:45:00,49.6,44.9,30.26,NNW,338,0.0,0.0,84,0.00,,,0.00,0000,Weather View 32 v70,2013-09-28 03:45:00,
2013-09-27 23:55:00,49.4,44.7,30.26,NNW,338,0.0,0.0,84,0.00,,,0.00,0000,Weather View 32 v70,2013-09-28 03:55:00,